We bring you up!

Munich Aviation Company

Munich Aviation Company

Munich Aviation Company

Munich Aviation Company

Sie finden uns auch auf: Munich Aviation Company auf Instagram

Flugwetter Augsburg

[Quelle: ADDS]
METAR
EDMA 201950Z VRB01KT CAVOK 06/04 Q1016 =
EDMA 201700Z 2018/2103 VRB02KT CAVOK BECMG 2023/2101 3000 BR TEMPO 2101/2103 1200 BR
TAF
EDMA 201700Z 2018/2103 VRB02KT CAVOK BECMG 2023/2101 3000 BR TEMPO 2101/2103 1200 BR =

Kontakt